createdAt,value
2019-04-16T00:01:39.461Z,65.87
2019-04-16T00:04:11.427Z,73.87
2019-04-16T00:06:40.426Z,66.43
2019-04-16T00:09:15.413Z,75.40
2019-04-16T00:11:44.457Z,67.37
2019-04-16T00:14:31.691Z,72.60
2019-04-16T00:16:59.087Z,62.97
2019-04-16T00:19:26.432Z,63.90
2019-04-16T00:22:12.430Z,69.67
2019-04-16T00:24:41.447Z,62.83
2019-04-16T00:27:08.784Z,64.87
2019-04-16T00:29:36.128Z,67.20
2019-04-16T00:32:07.860Z,69.97
2019-04-16T00:34:34.194Z,67.67
2019-04-16T00:37:01.649Z,68.67
2019-04-16T00:39:29.002Z,63.90
2019-04-16T00:41:56.422Z,61.27
2019-04-16T00:44:23.725Z,61.20
2019-04-16T00:46:51.046Z,76.20
2019-04-16T00:49:18.377Z,62.07
2019-04-16T00:51:45.699Z,62.67
2019-04-16T00:54:13.051Z,67.07
2019-04-16T00:56:40.544Z,63.27
2019-04-16T00:59:07.867Z,66.53
2019-04-16T01:01:35.257Z,62.77
2019-04-16T01:04:03.309Z,55.57
2019-04-16T01:06:30.907Z,59.43
2019-04-16T01:08:58.435Z,61.90
2019-04-16T01:11:25.789Z,63.50
2019-04-16T01:13:53.291Z,60.37
2019-04-16T01:16:22.173Z,61.03
2019-04-16T01:18:49.545Z,59.80
2019-04-16T01:21:16.887Z,59.07
2019-04-16T01:23:48.380Z,63.03
2019-04-16T01:26:13.367Z,62.50
2019-04-16T01:28:42.364Z,60.27
2019-04-16T01:31:17.366Z,65.23
2019-04-16T01:34:02.935Z,58.90
2019-04-16T01:36:31.923Z,59.73
2019-04-16T01:39:15.980Z,58.43
2019-04-16T01:41:33.181Z,64.17
2019-04-16T01:44:00.622Z,55.10
2019-04-16T01:46:32.553Z,59.83
2019-04-16T01:48:57.090Z,60.70
2019-04-16T01:51:24.469Z,61.57
2019-04-16T01:53:52.323Z,56.80
2019-04-16T01:56:20.219Z,55.30
2019-04-16T01:58:47.578Z,51.10
2019-04-16T02:01:14.933Z,58.50
2019-04-16T02:03:42.339Z,57.47
2019-04-16T02:06:09.685Z,58.07
2019-04-16T02:08:37.179Z,56.20
2019-04-16T02:11:09.594Z,53.90
2019-04-16T02:13:35.740Z,54.67
2019-04-16T02:16:03.085Z,54.67
2019-04-16T02:18:30.520Z,49.27
2019-04-16T02:20:57.863Z,57.73
2019-04-16T02:23:25.204Z,51.93
2019-04-16T02:25:52.510Z,52.37
2019-04-16T02:28:21.661Z,53.77
2019-04-16T02:30:48.850Z,50.70
2019-04-16T02:33:16.182Z,49.20
2019-04-16T02:35:43.548Z,50.93
2019-04-16T02:38:13.214Z,46.03
2019-04-16T02:40:39.890Z,53.90
2019-04-16T02:43:08.203Z,48.23
2019-04-16T02:45:35.802Z,45.93
2019-04-16T02:48:03.148Z,45.10
2019-04-16T02:50:32.291Z,48.10
2019-04-16T02:53:01.480Z,47.37
2019-04-16T02:55:42.617Z,43.77
2019-04-16T02:58:07.057Z,43.70
2019-04-16T03:00:36.032Z,47.97
2019-04-16T03:03:04.987Z,46.67
2019-04-16T03:05:33.960Z,43.43
2019-04-16T03:08:03.906Z,46.70
2019-04-16T03:10:30.276Z,49.73
2019-04-16T03:12:57.620Z,48.30
2019-04-16T03:15:38.399Z,50.70
2019-04-16T03:18:05.836Z,49.37
2019-04-16T03:20:33.163Z,48.33
2019-04-16T03:23:05.306Z,53.77
2019-04-16T03:25:29.586Z,44.73
2019-04-16T03:27:57.014Z,46.13
2019-04-16T03:30:24.329Z,43.57
2019-04-16T03:32:52.046Z,50.90
2019-04-16T03:35:19.447Z,49.10
2019-04-16T03:37:46.884Z,43.80
2019-04-16T03:40:17.063Z,41.37
2019-04-16T03:42:43.424Z,41.93
2019-04-16T03:45:10.835Z,37.07
2019-04-16T03:47:38.178Z,41.97
2019-04-16T03:50:05.494Z,40.37
2019-04-16T03:52:32.860Z,43.80
2019-04-16T03:55:00.177Z,40.60
2019-04-16T03:57:27.505Z,54.13
2019-04-16T03:59:55.322Z,40.43
2019-04-16T04:02:23.112Z,42.97
2019-04-16T04:04:50.630Z,42.33
2019-04-16T04:07:18.086Z,34.63
2019-04-16T04:09:45.445Z,42.13
2019-04-16T04:12:14.186Z,44.87
2019-04-16T04:14:43.176Z,39.63
2019-04-16T04:17:10.928Z,41.27
2019-04-16T04:19:38.340Z,37.67
2019-04-16T04:22:05.791Z,36.20
2019-04-16T04:24:33.153Z,39.20
2019-04-16T04:27:00.544Z,35.63
2019-04-16T04:29:29.530Z,33.77
2019-04-16T04:32:02.971Z,38.33
2019-04-16T04:34:26.677Z,35.40
2019-04-16T04:36:58.716Z,33.97
2019-04-16T04:39:23.199Z,39.83
2019-04-16T04:41:52.579Z,40.20
2019-04-16T04:44:19.581Z,33.80
2019-04-16T04:46:47.112Z,35.53
2019-04-16T04:49:14.536Z,32.10
2019-04-16T04:51:43.380Z,38.53
2019-04-16T04:54:11.334Z,41.93
2019-04-16T04:56:38.795Z,39.43
2019-04-16T04:59:06.211Z,39.27
2019-04-16T05:01:33.629Z,40.67
2019-04-16T05:04:05.135Z,46.53
2019-04-16T05:06:34.150Z,48.40
2019-04-16T05:09:01.537Z,50.40
2019-04-16T05:11:28.820Z,39.80
2019-04-16T05:13:57.034Z,37.00
2019-04-16T05:16:24.729Z,36.70
2019-04-16T05:18:52.206Z,44.40
2019-04-16T05:21:19.660Z,37.43
2019-04-16T05:23:47.081Z,42.27
2019-04-16T05:26:14.497Z,42.63
2019-04-16T05:28:45.508Z,39.60
2019-04-16T05:31:10.859Z,37.40
2019-04-16T05:33:38.266Z,39.13
2019-04-16T05:36:05.595Z,39.83
2019-04-16T05:38:32.947Z,37.30
2019-04-16T05:41:12.501Z,34.60
2019-04-16T05:43:30.309Z,40.87
2019-04-16T05:45:58.253Z,37.50
2019-04-16T05:48:25.685Z,32.43
2019-04-16T05:50:53.083Z,31.37
2019-04-16T05:53:20.520Z,30.13
2019-04-16T05:55:58.131Z,33.73
2019-04-16T05:58:27.485Z,32.40
2019-04-16T06:00:56.167Z,31.77
2019-04-16T06:03:23.497Z,37.53
2019-04-16T06:05:50.924Z,35.17
2019-04-16T06:08:18.339Z,35.40
2019-04-16T06:10:49.918Z,28.40
2019-04-16T06:13:25.338Z,29.43
2019-04-16T06:15:54.434Z,32.80
2019-04-16T06:18:39.969Z,25.00
2019-04-16T06:21:25.857Z,28.63
2019-04-16T06:23:54.717Z,27.67
2019-04-16T06:26:29.735Z,24.30
2019-04-16T06:29:00.155Z,26.93
2019-04-16T06:31:31.942Z,27.23
2019-04-16T06:34:03.456Z,21.83
2019-04-16T06:36:41.519Z,22.50
2019-04-16T06:39:30.022Z,24.23
2019-04-16T06:42:00.571Z,22.23
2019-04-16T06:44:30.229Z,23.23
2019-04-16T06:46:58.773Z,18.00
2019-04-16T06:49:34.641Z,22.73
2019-04-16T06:52:18.993Z,19.97
2019-04-16T06:55:04.432Z,15.27
2019-04-16T06:57:51.603Z,19.73
2019-04-16T07:00:26.417Z,16.80
2019-04-16T07:03:02.633Z,20.33
2019-04-16T07:05:33.143Z,19.77
2019-04-16T07:08:18.419Z,19.80
2019-04-16T07:10:57.152Z,15.03
2019-04-16T07:13:24.560Z,13.47
2019-04-16T07:15:53.317Z,12.83
2019-04-16T07:18:21.570Z,15.87
2019-04-16T07:20:48.999Z,14.43
2019-04-16T07:23:16.335Z,10.67
2019-04-16T07:25:45.036Z,12.77
2019-04-16T07:28:26.844Z,17.37
2019-04-16T07:30:59.160Z,11.43
2019-04-16T07:33:34.380Z,5.37
2019-04-16T07:36:12.548Z,9.03
2019-04-16T07:38:41.579Z,9.00
2019-04-16T07:41:22.824Z,6.63
2019-04-16T07:44:04.439Z,8.17
2019-04-16T07:46:31.723Z,6.27
2019-04-16T07:49:15.595Z,6.83
2019-04-16T07:52:00.777Z,6.93
2019-04-16T07:54:46.312Z,5.30
2019-04-16T07:57:13.724Z,7.23
2019-04-16T07:59:41.036Z,7.30
2019-04-16T08:02:08.426Z,6.07
2019-04-16T08:04:36.450Z,12.67
2019-04-16T08:07:04.153Z,9.23
2019-04-16T08:09:33.652Z,6.93
2019-04-16T08:12:00.504Z,6.93
2019-04-16T08:14:27.815Z,6.10
2019-04-16T08:16:55.233Z,10.00
2019-04-16T08:19:35.807Z,9.23
2019-04-16T08:21:51.608Z,6.40
2019-04-16T08:24:24.342Z,4.63
2019-04-16T08:26:49.639Z,10.23
2019-04-16T08:29:18.086Z,9.10
2019-04-16T08:31:47.225Z,7.83
2019-04-16T08:34:14.951Z,6.33
2019-04-16T08:36:42.295Z,8.63
2019-04-16T08:39:11.360Z,4.03
2019-04-16T08:41:39.137Z,6.10
2019-04-16T08:44:09.575Z,5.97
2019-04-16T08:46:35.462Z,5.97
2019-04-16T08:49:03.086Z,4.70
2019-04-16T08:51:31.391Z,5.83
2019-04-16T08:53:59.432Z,5.77
2019-04-16T08:56:27.069Z,4.10
2019-04-16T08:58:57.297Z,4.53
2019-04-16T09:01:27.687Z,8.00
2019-04-16T09:03:55.290Z,5.20
2019-04-16T09:06:22.589Z,6.03
2019-04-16T09:09:13.441Z,5.93
2019-04-16T09:11:36.812Z,3.50
2019-04-16T09:14:05.443Z,4.80
2019-04-16T09:16:34.441Z,6.67
2019-04-16T09:19:05.926Z,5.97
2019-04-16T09:21:33.635Z,5.63
2019-04-16T09:24:19.208Z,7.00
2019-04-16T09:27:05.822Z,6.60
2019-04-16T09:29:53.331Z,4.80
2019-04-16T09:32:37.100Z,4.70
2019-04-16T09:35:24.600Z,7.10
2019-04-16T09:37:56.660Z,8.47
2019-04-16T09:40:42.010Z,4.83
2019-04-16T09:43:17.680Z,6.20
2019-04-16T09:45:40.150Z,2.80
2019-04-16T09:48:07.495Z,5.43
2019-04-16T09:50:34.852Z,4.07
2019-04-16T09:53:02.263Z,5.47
2019-04-16T09:55:29.772Z,6.63
2019-04-16T09:57:58.743Z,2.83
2019-04-16T10:00:27.692Z,4.50
2019-04-16T10:02:56.815Z,6.47
2019-04-16T10:05:26.552Z,4.70
2019-04-16T10:07:53.154Z,6.73
2019-04-16T10:10:23.641Z,5.73
2019-04-16T10:12:49.922Z,3.90
2019-04-16T10:15:17.266Z,7.33
2019-04-16T10:17:44.577Z,5.43
2019-04-16T10:20:11.906Z,5.03
2019-04-16T10:22:39.291Z,6.70
2019-04-16T10:25:08.305Z,7.20
2019-04-16T10:27:40.106Z,6.60
2019-04-16T10:30:09.270Z,10.07
2019-04-16T10:32:36.609Z,4.63
2019-04-16T10:35:04.835Z,5.10
2019-04-16T10:37:32.267Z,6.07
2019-04-16T10:40:06.830Z,5.97
2019-04-16T10:42:38.592Z,4.57
2019-04-16T10:45:07.552Z,4.70
2019-04-16T10:47:52.879Z,5.10
2019-04-16T10:50:30.821Z,4.13
2019-04-16T10:53:05.618Z,3.33
2019-04-16T10:55:37.656Z,5.50
2019-04-16T10:58:23.526Z,6.80
2019-04-16T11:00:55.293Z,4.83
2019-04-16T11:03:24.243Z,7.50
2019-04-16T11:05:56.857Z,5.43
2019-04-16T11:08:22.323Z,4.27
2019-04-16T11:10:49.661Z,5.30
2019-04-16T11:13:21.204Z,5.20
2019-04-16T11:15:48.596Z,3.67
2019-04-16T11:18:15.945Z,3.90
2019-04-16T11:20:43.438Z,4.60
2019-04-16T11:23:10.801Z,4.57
2019-04-16T11:25:38.143Z,4.67
2019-04-16T11:28:05.471Z,4.97
2019-04-16T11:30:37.316Z,4.53
2019-04-16T11:33:04.719Z,6.13
2019-04-16T11:35:32.066Z,3.60
2019-04-16T11:37:59.383Z,5.30
2019-04-16T11:40:27.033Z,4.03
2019-04-16T11:42:54.349Z,3.97
2019-04-16T11:45:21.877Z,4.37
2019-04-16T11:47:49.269Z,2.67
2019-04-16T11:50:16.643Z,5.47
2019-04-16T11:52:44.035Z,2.20
2019-04-16T11:55:11.447Z,3.97
2019-04-16T11:57:38.841Z,3.90
2019-04-16T12:00:09.511Z,4.83
2019-04-16T12:02:50.551Z,2.83
2019-04-16T12:05:22.403Z,8.73
2019-04-16T12:07:51.657Z,3.73
2019-04-16T12:10:23.338Z,4.40
2019-04-16T12:13:08.734Z,2.90
2019-04-16T12:15:53.878Z,4.77
2019-04-16T12:18:22.910Z,3.40
2019-04-16T12:20:57.565Z,3.60
2019-04-16T12:23:38.896Z,4.40
2019-04-16T12:26:11.070Z,7.57
2019-04-16T12:28:43.445Z,3.60
2019-04-16T12:31:16.060Z,3.90
2019-04-16T12:33:43.143Z,4.80
2019-04-16T12:36:14.107Z,7.77
2019-04-16T12:38:42.915Z,3.07
2019-04-16T12:41:12.003Z,5.92
2019-04-16T12:43:43.699Z,2.83
2019-04-16T12:46:21.769Z,5.53
2019-04-16T12:48:50.731Z,5.83
2019-04-16T12:51:22.531Z,6.00
2019-04-16T12:53:53.342Z,3.90
2019-04-16T12:56:31.012Z,4.77
2019-04-16T12:59:08.870Z,5.57
2019-04-16T13:01:49.980Z,2.50
2019-04-16T13:04:28.214Z,4.83
2019-04-16T13:06:57.158Z,3.37
2019-04-16T13:09:44.237Z,3.33
2019-04-16T13:12:19.301Z,4.40
2019-04-16T13:15:04.868Z,3.73
2019-04-16T13:17:50.976Z,2.93
2019-04-16T13:20:37.342Z,6.27
2019-04-16T13:23:12.429Z,4.40
2019-04-16T13:26:00.031Z,4.90
2019-04-16T13:28:27.534Z,4.93
2019-04-16T13:30:54.869Z,4.57
2019-04-16T13:33:22.238Z,5.27
2019-04-16T13:35:49.642Z,3.60
2019-04-16T13:38:18.645Z,8.07
2019-04-16T13:40:46.087Z,5.13
2019-04-16T13:43:15.071Z,4.03
2019-04-16T13:45:42.563Z,10.03
2019-04-16T13:48:16.655Z,7.93
2019-04-16T13:50:42.284Z,5.30
2019-04-16T13:53:28.711Z,5.33
2019-04-16T13:56:10.478Z,6.47
2019-04-16T13:58:42.572Z,5.83
2019-04-16T14:01:14.379Z,5.27
2019-04-16T14:03:41.746Z,6.10
2019-04-16T14:06:10.746Z,11.50
2019-04-16T14:08:38.265Z,6.23
2019-04-16T14:11:05.638Z,6.37
2019-04-16T14:13:33.096Z,5.70
2019-04-16T14:16:00.671Z,7.30
2019-04-16T14:18:29.672Z,4.60
2019-04-16T14:20:57.137Z,9.23
2019-04-16T14:23:24.517Z,6.07
2019-04-16T14:25:51.872Z,7.20
2019-04-16T14:28:19.226Z,6.43
2019-04-16T14:30:48.174Z,10.30
2019-04-16T14:33:17.141Z,5.47
2019-04-16T14:35:44.570Z,6.97
2019-04-16T14:38:13.615Z,4.43
2019-04-16T14:40:42.369Z,3.80
2019-04-16T14:43:10.995Z,9.20
2019-04-16T14:45:56.965Z,3.73
2019-04-16T14:48:11.732Z,4.13
2019-04-16T14:50:39.129Z,5.10
2019-04-16T14:53:06.616Z,5.50
2019-04-16T14:55:35.683Z,5.37
2019-04-16T14:58:21.088Z,4.57
2019-04-16T15:00:50.119Z,5.70
2019-04-16T15:03:34.234Z,5.00
2019-04-16T15:06:03.421Z,4.30
2019-04-16T15:08:48.968Z,7.43
2019-04-16T15:11:34.387Z,11.13
2019-04-16T15:14:15.395Z,4.00
2019-04-16T15:16:44.979Z,5.63
2019-04-16T15:19:32.289Z,5.33
2019-04-16T15:22:01.568Z,5.97
2019-04-16T15:24:33.517Z,4.80
2019-04-16T15:27:17.333Z,8.07
2019-04-16T15:29:49.093Z,7.23
2019-04-16T15:32:34.772Z,4.67
2019-04-16T15:35:02.439Z,4.80
2019-04-16T15:37:34.649Z,5.43
2019-04-16T15:40:08.070Z,3.77
2019-04-16T15:42:36.806Z,6.63
2019-04-16T15:45:09.399Z,5.93
2019-04-16T15:47:54.216Z,4.50
2019-04-16T15:50:23.228Z,8.27
2019-04-16T15:52:52.294Z,6.40
2019-04-16T15:55:36.474Z,5.57
2019-04-16T15:58:22.123Z,11.37
2019-04-16T16:01:07.561Z,11.53
2019-04-16T16:03:52.751Z,6.40
2019-04-16T16:06:21.785Z,4.57
2019-04-16T16:08:56.501Z,6.40
2019-04-16T16:11:25.614Z,5.87
2019-04-16T16:13:53.070Z,10.13
2019-04-16T16:16:20.459Z,5.23
2019-04-16T16:18:47.836Z,4.00
2019-04-16T16:21:15.220Z,4.07
2019-04-16T16:23:42.572Z,23.77
2019-04-16T16:26:09.991Z,4.73
2019-04-16T16:28:37.362Z,4.60
2019-04-16T16:31:05.141Z,5.30
2019-04-16T16:33:32.539Z,5.43
2019-04-16T16:36:00.456Z,4.83
2019-04-16T16:38:28.219Z,4.43
2019-04-16T16:40:55.593Z,4.90
2019-04-16T16:43:23.031Z,5.03
2019-04-16T16:45:54.701Z,4.87
2019-04-16T16:48:23.189Z,6.20
2019-04-16T16:50:51.746Z,6.00
2019-04-16T16:53:26.500Z,3.83
2019-04-16T16:55:55.401Z,2.63
2019-04-16T16:58:30.367Z,4.87
2019-04-16T17:01:17.797Z,4.33
2019-04-16T17:03:55.520Z,7.00
2019-04-16T17:06:24.590Z,7.70
2019-04-16T17:08:51.959Z,6.83
2019-04-16T17:11:19.452Z,14.17
2019-04-16T17:13:46.873Z,6.50
2019-04-16T17:16:14.899Z,7.93
2019-04-16T17:18:45.333Z,5.47
2019-04-16T17:21:12.406Z,7.87
2019-04-16T17:23:39.780Z,7.77
2019-04-16T17:26:07.384Z,7.70
2019-04-16T17:28:34.831Z,6.27
2019-04-16T17:31:02.338Z,8.13
2019-04-16T17:33:29.715Z,12.07
2019-04-16T17:35:57.109Z,9.60
2019-04-16T17:38:24.508Z,9.53
2019-04-16T17:41:00.284Z,9.17
2019-04-16T17:43:29.421Z,17.87
2019-04-16T17:46:00.998Z,9.93
2019-04-16T17:48:36.313Z,10.00
2019-04-16T17:51:08.816Z,8.50
2019-04-16T17:53:40.764Z,9.70
2019-04-16T17:56:12.481Z,5.67
2019-04-16T17:58:47.483Z,11.90
2019-04-16T18:01:33.151Z,6.37
2019-04-16T18:04:02.175Z,8.93
2019-04-16T18:06:37.303Z,12.43
2019-04-16T18:09:07.270Z,13.30
2019-04-16T18:11:36.320Z,15.83
2019-04-16T18:14:17.289Z,10.43
2019-04-16T18:16:50.101Z,23.13
2019-04-16T18:19:28.860Z,16.90
2019-04-16T18:22:04.392Z,10.53
2019-04-16T18:24:40.526Z,12.37
2019-04-16T18:27:09.652Z,10.60
2019-04-16T18:29:38.855Z,16.10
2019-04-16T18:32:16.559Z,14.00
2019-04-16T18:34:48.370Z,15.43
2019-04-16T18:37:26.102Z,13.20
2019-04-16T18:39:55.072Z,11.17
2019-04-16T18:45:13.714Z,10.80
2019-04-16T18:47:45.526Z,12.00
2019-04-16T18:50:14.488Z,13.63
2019-04-16T18:52:41.948Z,9.50
2019-04-16T18:55:09.335Z,14.43
2019-04-16T18:57:38.347Z,14.87
2019-04-16T19:00:08.227Z,20.17
2019-04-16T19:02:35.621Z,16.73
2019-04-16T19:05:03.280Z,14.87
2019-04-16T19:07:30.809Z,20.07
2019-04-16T19:09:58.174Z,19.47
2019-04-16T19:12:25.770Z,16.07
2019-04-16T19:14:53.122Z,15.33
2019-04-16T19:17:20.522Z,15.87
2019-04-16T19:19:47.881Z,19.40
2019-04-16T19:22:15.333Z,20.07
2019-04-16T19:24:42.734Z,20.57
2019-04-16T19:27:10.130Z,22.43
2019-04-16T19:29:37.539Z,23.73
2019-04-16T19:32:05.057Z,20.83
2019-04-16T19:34:32.416Z,18.87
2019-04-16T19:37:01.009Z,24.37
2019-04-16T19:39:28.823Z,19.07
2019-04-16T19:41:57.709Z,22.20
2019-04-16T19:44:25.843Z,17.33
2019-04-16T19:46:54.320Z,20.03
2019-04-16T19:49:22.190Z,18.70
2019-04-16T19:51:49.684Z,24.70
2019-04-16T19:54:17.141Z,19.90
2019-04-16T19:56:44.498Z,18.37
2019-04-16T19:59:12.083Z,16.50
2019-04-16T20:01:39.870Z,11.07
2019-04-16T20:04:10.640Z,16.57
2019-04-16T20:06:37.035Z,18.80
2019-04-16T20:09:05.519Z,13.80
2019-04-16T20:11:33.118Z,16.83
2019-04-16T20:14:02.671Z,21.03
2019-04-16T20:16:29.578Z,15.67
2019-04-16T20:18:57.052Z,14.30
2019-04-16T20:21:24.463Z,12.60
2019-04-16T20:23:51.807Z,13.77
2019-04-16T20:26:19.181Z,16.33
2019-04-16T20:28:48.588Z,18.53
2019-04-16T20:31:15.655Z,16.37
2019-04-16T20:33:43.009Z,11.43
2019-04-16T20:36:10.456Z,11.17
2019-04-16T20:38:38.018Z,9.03
2019-04-16T20:41:07.430Z,11.03
2019-04-16T20:43:35.228Z,16.50
2019-04-16T20:46:02.756Z,14.07
2019-04-16T20:48:30.223Z,8.30
2019-04-16T20:50:59.877Z,11.67
2019-04-16T20:53:27.949Z,14.67
2019-04-16T20:55:55.782Z,9.47
2019-04-16T20:58:23.099Z,8.23
2019-04-16T21:00:55.163Z,9.07
2019-04-16T21:03:22.922Z,10.60
2019-04-16T21:05:57.848Z,9.70
2019-04-16T21:08:24.287Z,11.60
2019-04-16T21:10:48.533Z,10.70
2019-04-16T21:13:16.754Z,7.93
2019-04-16T21:15:44.219Z,8.13
2019-04-16T21:18:12.258Z,8.53
2019-04-16T21:20:39.760Z,8.60
2019-04-16T21:23:07.175Z,9.07
2019-04-16T21:25:34.709Z,8.60
2019-04-16T21:28:06.314Z,8.30
2019-04-16T21:30:34.082Z,7.93
2019-04-16T21:33:11.639Z,9.67
2019-04-16T21:35:40.693Z,9.77
2019-04-16T21:38:21.741Z,8.23
2019-04-16T21:40:49.064Z,8.57
2019-04-16T21:43:16.395Z,7.83
2019-04-16T21:45:45.618Z,9.17
2019-04-16T21:48:12.839Z,10.57
2019-04-16T21:50:40.165Z,10.37
2019-04-16T21:53:07.766Z,8.73
2019-04-16T21:55:35.463Z,7.30
2019-04-16T21:58:03.589Z,8.47
2019-04-16T22:00:38.381Z,5.37
2019-04-16T22:03:09.801Z,6.73
2019-04-16T22:05:36.437Z,6.10
2019-04-16T22:08:03.772Z,5.43
2019-04-16T22:10:31.071Z,6.13
2019-04-16T22:12:58.398Z,7.00
2019-04-16T22:15:26.102Z,7.13
2019-04-16T22:17:53.491Z,4.73
2019-04-16T22:20:20.798Z,8.17
2019-04-16T22:22:48.174Z,8.80
2019-04-16T22:25:15.564Z,7.77
2019-04-16T22:27:42.952Z,6.17
2019-04-16T22:30:10.290Z,9.10
2019-04-16T22:32:37.725Z,9.07
2019-04-16T22:35:06.701Z,8.97
2019-04-16T22:37:34.019Z,7.57
2019-04-16T22:40:03.024Z,8.93
2019-04-16T22:42:31.989Z,10.27
2019-04-16T22:45:06.531Z,11.07
2019-04-16T22:47:38.453Z,12.07
2019-04-16T22:50:15.111Z,12.37
2019-04-16T22:52:34.865Z,9.50
2019-04-16T22:55:02.555Z,12.63
2019-04-16T22:57:30.878Z,11.10
2019-04-16T22:59:58.905Z,11.23
2019-04-16T23:02:27.881Z,12.53
2019-04-16T23:04:58.462Z,10.60
2019-04-16T23:07:24.264Z,9.97
2019-04-16T23:09:51.579Z,10.90
2019-04-16T23:12:19.000Z,9.37
2019-04-16T23:14:46.328Z,12.77
2019-04-16T23:17:14.365Z,11.63
2019-04-16T23:19:41.809Z,13.10
2019-04-16T23:22:14.163Z,11.47
2019-04-16T23:24:38.180Z,12.23
2019-04-16T23:27:06.372Z,14.77
2019-04-16T23:29:34.077Z,13.60
2019-04-16T23:32:01.463Z,12.00
2019-04-16T23:34:28.821Z,13.13
2019-04-16T23:36:56.220Z,12.10
2019-04-16T23:39:23.576Z,14.70
2019-04-16T23:41:50.956Z,14.60
2019-04-16T23:44:36.458Z,18.17
2019-04-16T23:47:14.124Z,15.40
2019-04-16T23:49:43.126Z,15.87
2019-04-16T23:52:12.185Z,15.13
2019-04-16T23:54:43.990Z,15.77
2019-04-16T23:57:14.817Z,18.10
2019-04-16T23:59:46.545Z,18.60
